<?xml version="1.0" encoding="UTF-8" standalone="no" ?>
<gpx xmlns="http://www.topografix.com/GPX/1/1" xmlns:xsi="http://www.w3.org/2001/XMLSchema-instance" xsi:schemaLocation="http://www.topografix.com/GPX/1/1 http://www.topografix.com/GPX/1/1/gpx.xsd" version="1.1" creator="VisuGPX - https://www.visugpx.com">
  <metadata>
    <name>Macif 18 - Lundi 2 Juin 2014</name>
    <desc><![CDATA[Macif 18 - Lundi 2 Juin 2014]]></desc>
  </metadata>
  <trk>
    <name><![CDATA[Macif 18 - Lundi 2 Juin 2014_1]]></name>
    <trkseg>
      <trkpt lat="46.14484" lon="-1.16524">
        <ele>63</ele>
        <time>2014-06-02T08:36:06Z</time>
      </trkpt>
      <trkpt lat="46.14487" lon="-1.16511">
        <ele>39</ele>
        <time>2014-06-02T08:48:54Z</time>
      </trkpt>
      <trkpt lat="46.14668" lon="-1.16826">
        <ele>48</ele>
        <time>2014-06-02T08:54:06Z</time>
      </trkpt>
      <trkpt lat="46.14853" lon="-1.16908">
        <ele>42</ele>
        <time>2014-06-02T08:59:17Z</time>
      </trkpt>
      <trkpt lat="46.14666" lon="-1.17464">
        <ele>55</ele>
        <time>2014-06-02T09:04:19Z</time>
      </trkpt>
      <trkpt lat="46.14302" lon="-1.18077">
        <ele>71</ele>
        <time>2014-06-02T09:09:25Z</time>
      </trkpt>
      <trkpt lat="46.13925" lon="-1.18453">
        <ele>39</ele>
        <time>2014-06-02T09:14:29Z</time>
      </trkpt>
      <trkpt lat="46.13608" lon="-1.18834">
        <ele>45</ele>
        <time>2014-06-02T09:19:50Z</time>
      </trkpt>
      <trkpt lat="46.13387" lon="-1.19173">
        <ele>45</ele>
        <time>2014-06-02T09:24:55Z</time>
      </trkpt>
      <trkpt lat="46.12585" lon="-1.19928">
        <ele>46</ele>
        <time>2014-06-02T09:31:58Z</time>
      </trkpt>
      <trkpt lat="46.12365" lon="-1.20508">
        <ele>42</ele>
        <time>2014-06-02T09:37:07Z</time>
      </trkpt>
      <trkpt lat="46.12995" lon="-1.21184">
        <ele>51</ele>
        <time>2014-06-02T09:42:10Z</time>
      </trkpt>
      <trkpt lat="46.13665" lon="-1.21743">
        <ele>33</ele>
        <time>2014-06-02T09:47:14Z</time>
      </trkpt>
      <trkpt lat="46.14155" lon="-1.22128">
        <ele>32</ele>
        <time>2014-06-02T09:52:18Z</time>
      </trkpt>
      <trkpt lat="46.13939" lon="-1.22648">
        <ele>39</ele>
        <time>2014-06-02T09:58:18Z</time>
      </trkpt>
      <trkpt lat="46.14248" lon="-1.22895">
        <ele>31</ele>
        <time>2014-06-02T10:03:26Z</time>
      </trkpt>
      <trkpt lat="46.13941" lon="-1.23726">
        <ele>32</ele>
        <time>2014-06-02T10:10:19Z</time>
      </trkpt>
      <trkpt lat="46.14381" lon="-1.24781">
        <ele>49</ele>
        <time>2014-06-02T10:15:23Z</time>
      </trkpt>
      <trkpt lat="46.14697" lon="-1.256">
        <ele>49</ele>
        <time>2014-06-02T10:20:24Z</time>
      </trkpt>
      <trkpt lat="46.15055" lon="-1.2624">
        <ele>54</ele>
        <time>2014-06-02T10:25:30Z</time>
      </trkpt>
      <trkpt lat="46.15068" lon="-1.26208">
        <ele>-6</ele>
        <time>2014-06-02T10:30:34Z</time>
      </trkpt>
      <trkpt lat="46.15053" lon="-1.26216">
        <ele>53</ele>
        <time>2014-06-02T10:35:37Z</time>
      </trkpt>
      <trkpt lat="46.15062" lon="-1.26212">
        <ele>39</ele>
        <time>2014-06-02T10:51:00Z</time>
      </trkpt>
      <trkpt lat="46.15052" lon="-1.2622">
        <ele>45</ele>
        <time>2014-06-02T11:24:05Z</time>
      </trkpt>
      <trkpt lat="46.15065" lon="-1.26214">
        <ele>52</ele>
        <time>2014-06-02T11:35:08Z</time>
      </trkpt>
      <trkpt lat="46.15056" lon="-1.26203">
        <ele>44</ele>
        <time>2014-06-02T11:45:14Z</time>
      </trkpt>
      <trkpt lat="46.15068" lon="-1.26209">
        <ele>45</ele>
        <time>2014-06-02T11:50:17Z</time>
      </trkpt>
      <trkpt lat="46.15008" lon="-1.26017">
        <ele>46</ele>
        <time>2014-06-02T12:00:53Z</time>
      </trkpt>
      <trkpt lat="46.14542" lon="-1.25281">
        <ele>36</ele>
        <time>2014-06-02T12:05:58Z</time>
      </trkpt>
      <trkpt lat="46.13456" lon="-1.24756">
        <ele>42</ele>
        <time>2014-06-02T12:11:02Z</time>
      </trkpt>
      <trkpt lat="46.12377" lon="-1.24854">
        <ele>35</ele>
        <time>2014-06-02T12:16:04Z</time>
      </trkpt>
      <trkpt lat="46.11274" lon="-1.25298">
        <ele>40</ele>
        <time>2014-06-02T12:21:10Z</time>
      </trkpt>
      <trkpt lat="46.10328" lon="-1.25481">
        <ele>29</ele>
        <time>2014-06-02T12:26:14Z</time>
      </trkpt>
      <trkpt lat="46.09149" lon="-1.24856">
        <ele>47</ele>
        <time>2014-06-02T12:33:09Z</time>
      </trkpt>
      <trkpt lat="46.0854" lon="-1.24119">
        <ele>56</ele>
        <time>2014-06-02T12:38:14Z</time>
      </trkpt>
      <trkpt lat="46.07667" lon="-1.23368">
        <ele>54</ele>
        <time>2014-06-02T12:44:50Z</time>
      </trkpt>
      <trkpt lat="46.08392" lon="-1.22788">
        <ele>48</ele>
        <time>2014-06-02T12:49:53Z</time>
      </trkpt>
      <trkpt lat="46.0894" lon="-1.22963">
        <ele>57</ele>
        <time>2014-06-02T12:55:25Z</time>
      </trkpt>
      <trkpt lat="46.10079" lon="-1.22932">
        <ele>48</ele>
        <time>2014-06-02T13:00:52Z</time>
      </trkpt>
      <trkpt lat="46.11009" lon="-1.22741">
        <ele>50</ele>
        <time>2014-06-02T13:06:01Z</time>
      </trkpt>
      <trkpt lat="46.11878" lon="-1.22934">
        <ele>51</ele>
        <time>2014-06-02T13:11:05Z</time>
      </trkpt>
      <trkpt lat="46.12815" lon="-1.22927">
        <ele>56</ele>
        <time>2014-06-02T13:16:07Z</time>
      </trkpt>
      <trkpt lat="46.13765" lon="-1.23352">
        <ele>63</ele>
        <time>2014-06-02T13:21:12Z</time>
      </trkpt>
      <trkpt lat="46.14406" lon="-1.24035">
        <ele>66</ele>
        <time>2014-06-02T13:26:14Z</time>
      </trkpt>
      <trkpt lat="46.15003" lon="-1.24863">
        <ele>42</ele>
        <time>2014-06-02T13:31:16Z</time>
      </trkpt>
      <trkpt lat="46.15695" lon="-1.24864">
        <ele>43</ele>
        <time>2014-06-02T13:36:54Z</time>
      </trkpt>
      <trkpt lat="46.16383" lon="-1.24431">
        <ele>36</ele>
        <time>2014-06-02T13:42:23Z</time>
      </trkpt>
      <trkpt lat="46.17136" lon="-1.24181">
        <ele>45</ele>
        <time>2014-06-02T13:48:53Z</time>
      </trkpt>
      <trkpt lat="46.16834" lon="-1.24549">
        <ele>57</ele>
        <time>2014-06-02T13:54:25Z</time>
      </trkpt>
      <trkpt lat="46.16037" lon="-1.24396">
        <ele>42</ele>
        <time>2014-06-02T14:00:24Z</time>
      </trkpt>
      <trkpt lat="46.15459" lon="-1.24332">
        <ele>44</ele>
        <time>2014-06-02T14:05:28Z</time>
      </trkpt>
      <trkpt lat="46.14626" lon="-1.23148">
        <ele>30</ele>
        <time>2014-06-02T14:12:33Z</time>
      </trkpt>
      <trkpt lat="46.13532" lon="-1.21738">
        <ele>33</ele>
        <time>2014-06-02T14:19:49Z</time>
      </trkpt>
      <trkpt lat="46.12661" lon="-1.20837">
        <ele>50</ele>
        <time>2014-06-02T14:24:58Z</time>
      </trkpt>
      <trkpt lat="46.11475" lon="-1.19623">
        <ele>34</ele>
        <time>2014-06-02T14:32:30Z</time>
      </trkpt>
      <trkpt lat="46.12374" lon="-1.1957">
        <ele>5</ele>
        <time>2014-06-02T14:38:33Z</time>
      </trkpt>
      <trkpt lat="46.13299" lon="-1.19212">
        <ele>50</ele>
        <time>2014-06-02T14:43:35Z</time>
      </trkpt>
      <trkpt lat="46.14049" lon="-1.18339">
        <ele>60</ele>
        <time>2014-06-02T14:48:38Z</time>
      </trkpt>
      <trkpt lat="46.14561" lon="-1.1776">
        <ele>33</ele>
        <time>2014-06-02T14:53:54Z</time>
      </trkpt>
      <trkpt lat="46.14794" lon="-1.17153">
        <ele>54</ele>
        <time>2014-06-02T14:58:55Z</time>
      </trkpt>
      <trkpt lat="46.14568" lon="-1.1671">
        <ele>51</ele>
        <time>2014-06-02T15:04:48Z</time>
      </trkpt>
      <trkpt lat="46.1447" lon="-1.16522">
        <ele>45</ele>
        <time>2014-06-02T15:09:55Z</time>
      </trkpt>
    </trkseg>
  </trk>
</gpx>